Time;durP1;ratioP1;P1;durP2;ratioP2;P2;SDS_P1;SDS_P2;PMS_P1;PMS_P2;Temp;Humidity;BMP_temperature;BMP_pressure;BME280_temperature;BME280_humidity;BME280_pressure;Samples;Min_cycle;Max_cycle;Signal;HPM_P1;HPM_P2
2023/05/31 00:01:37;;;;;;;6.03;2.50;;;;;;;15.96;43.95;97649.56;6155283;23;20379;-81
2023/05/31 00:04:06;;;;;;;7.40;2.47;;;;;;;16.02;44.52;97645.78;6156593;23;20373;-81
2023/05/31 00:06:32;;;;;;;6.80;2.42;;;;;;;15.99;44.18;97647.16;6156700;23;20374;-83
2023/05/31 00:08:58;;;;;;;9.10;2.40;;;;;;;16.00;44.57;97645.28;6156326;23;20446;-82
2023/05/31 00:11:26;;;;;;;8.80;2.33;;;;;;;15.95;44.72;97638.09;6156541;23;20819;-81
2023/05/31 00:13:52;;;;;;;5.82;2.85;;;;;;;15.99;44.68;97641.00;6155337;23;20743;-80
2023/05/31 00:16:18;;;;;;;5.88;2.67;;;;;;;15.96;44.25;97646.91;6153923;23;20379;-81
2023/05/31 00:18:45;;;;;;;6.35;2.40;;;;;;;15.99;44.54;97644.47;6154099;23;20371;-81
2023/05/31 00:21:12;;;;;;;6.60;2.28;;;;;;;15.92;44.72;97648.53;6154283;23;20873;-80
2023/05/31 00:23:38;;;;;;;7.40;2.65;;;;;;;15.88;44.89;97646.41;6153668;23;20470;-81
2023/05/31 00:26:05;;;;;;;6.18;2.72;;;;;;;15.90;45.46;97643.47;6153988;23;20371;-81
2023/05/31 00:28:31;;;;;;;4.43;2.40;;;;;;;15.80;45.52;97643.53;6154334;23;20371;-80
2023/05/31 00:30:57;;;;;;;7.18;2.47;;;;;;;15.78;45.10;97643.84;6154717;23;20430;-81
2023/05/31 00:33:23;;;;;;;4.70;2.13;;;;;;;15.80;44.20;97641.69;6154561;23;20378;-82
2023/05/31 00:35:50;;;;;;;8.23;2.57;;;;;;;15.84;43.97;97640.06;6154381;23;20407;-82
2023/05/31 00:38:17;;;;;;;7.80;2.22;;;;;;;15.82;44.19;97636.88;6154895;23;20368;-81
2023/05/31 00:40:47;;;;;;;7.00;2.97;;;;;;;15.80;44.35;97636.34;6154854;23;20382;-80
2023/05/31 00:43:13;;;;;;;4.70;2.35;;;;;;;15.83;44.33;97643.81;6155013;23;20819;-81
2023/05/31 00:45:39;;;;;;;5.68;2.33;;;;;;;15.77;44.65;97642.25;6154806;23;20371;-81
2023/05/31 00:48:06;;;;;;;3.85;2.22;;;;;;;15.78;44.35;97640.38;6155167;23;20704;-80
2023/05/31 00:50:32;;;;;;;11.27;2.33;;;;;;;15.75;44.07;97639.06;6155339;23;20363;-80
2023/05/31 00:53:08;;;;;;;9.30;2.10;;;;;;;15.76;43.78;97632.63;6155887;23;20367;-81
2023/05/31 00:55:36;;;;;;;4.97;2.20;;;;;;;15.73;43.78;97627.84;6127547;23;20478;-81
2023/05/31 00:58:02;;;;;;;8.80;2.20;;;;;;;15.72;44.15;97623.56;6155562;23;20371;-81
2023/05/31 01:00:30;;;;;;;3.95;2.05;;;;;;;15.77;44.36;97628.09;6155785;23;20383;-81
2023/05/31 01:03:01;;;;;;;8.00;2.35;;;;;;;15.74;44.41;97629.44;6155633;23;20367;-81
2023/05/31 01:05:27;;;;;;;5.63;2.10;;;;;;;15.72;43.98;97631.59;6156210;23;20375;-82
2023/05/31 01:07:53;;;;;;;6.82;2.53;;;;;;;15.76;43.76;97632.63;6157399;23;20374;-81
2023/05/31 01:10:20;;;;;;;10.82;2.53;;;;;;;15.72;43.99;97641.47;6155546;23;20464;-80
2023/05/31 01:13:00;;;;;;;7.68;2.58;;;;;;;15.70;43.96;97638.28;6154501;23;20815;-80
2023/05/31 01:15:31;;;;;;;5.85;2.30;;;;;;;15.68;43.90;97638.56;6154397;23;20747;-81
2023/05/31 01:18:10;;;;;;;4.63;2.55;;;;;;;15.77;43.39;97634.25;6154973;23;20402;-80
2023/05/31 01:20:39;;;;;;;5.43;2.30;;;;;;;15.71;43.04;97638.00;6155528;23;20408;-80
2023/05/31 01:23:22;;;;;;;7.03;2.25;;;;;;;15.65;43.32;97630.31;6154878;23;20363;-80
2023/05/31 01:26:05;;;;;;;4.93;2.35;;;;;;;15.71;43.73;97639.91;6154839;23;20367;-80
2023/05/31 01:28:36;;;;;;;5.78;2.75;;;;;;;15.68;43.63;97627.09;6156111;23;20819;-81
2023/05/31 01:31:07;;;;;;;7.22;2.47;;;;;;;15.61;43.85;97630.06;6129198;23;20726;-81
2023/05/31 01:33:34;;;;;;;6.03;2.42;;;;;;;15.68;43.39;97632.44;6154967;23;20367;-80
2023/05/31 01:36:00;;;;;;;6.00;2.50;;;;;;;15.69;44.08;97634.03;6154717;23;20757;-81
2023/05/31 01:38:26;;;;;;;5.97;2.40;;;;;;;15.68;44.07;97635.09;6155089;23;20815;-80
2023/05/31 01:40:55;;;;;;;7.07;2.38;;;;;;;15.67;43.77;97634.31;6155256;23;20550;-80
2023/05/31 01:43:22;;;;;;;8.93;2.50;;;;;;;15.65;43.74;97627.63;6154906;23;20399;-81
2023/05/31 01:45:51;;;;;;;6.65;2.33;;;;;;;15.61;43.72;97643.41;6129147;23;20386;-81
2023/05/31 01:48:17;;;;;;;5.35;2.22;;;;;;;15.61;43.85;97635.41;6155709;23;20368;-82
2023/05/31 01:50:45;;;;;;;7.85;2.40;;;;;;;15.59;43.55;97637.56;6155590;23;20370;-81
2023/05/31 01:53:11;;;;;;;6.97;2.25;;;;;;;15.60;43.89;97641.81;6155928;23;20431;-81
2023/05/31 01:55:38;;;;;;;7.93;2.72;;;;;;;15.49;44.76;97643.72;6155280;23;20754;-81
2023/05/31 01:58:05;;;;;;;5.55;2.45;;;;;;;15.33;44.99;97644.91;6155878;23;20367;-81
2023/05/31 02:00:35;;;;;;;6.32;2.55;;;;;;;15.32;45.82;97645.97;6156723;23;20509;-81
2023/05/31 02:03:03;;;;;;;5.13;2.30;;;;;;;15.12;46.20;97648.69;6157768;23;20369;-82
2023/05/31 02:05:29;;;;;;;5.60;2.15;;;;;;;15.04;46.83;97644.72;6159076;23;20400;-81
2023/05/31 02:07:56;;;;;;;4.38;2.47;;;;;;;14.84;47.12;97650.16;6155812;23;20371;-80
2023/05/31 02:10:22;;;;;;;5.72;2.47;;;;;;;14.79;47.86;97650.19;6156367;23;20742;-80
2023/05/31 02:12:53;;;;;;;7.13;2.67;;;;;;;14.70;48.02;97649.13;6129802;23;20723;-81
2023/05/31 02:15:19;;;;;;;7.35;2.53;;;;;;;14.65;48.54;97644.63;6156080;23;20510;-80
2023/05/31 02:17:50;;;;;;;5.05;2.67;;;;;;;14.48;49.14;97641.47;6156450;23;20905;-80
2023/05/31 02:20:18;;;;;;;6.25;2.95;;;;;;;14.34;49.24;97651.03;6156656;23;20727;-80
2023/05/31 02:22:45;;;;;;;10.30;3.10;;;;;;;14.23;49.82;97647.56;6156085;23;20403;-81
2023/05/31 02:25:13;;;;;;;5.70;2.60;;;;;;;14.13;50.06;97644.94;6156621;23;20363;-81
2023/05/31 02:27:40;;;;;;;8.52;2.53;;;;;;;13.98;49.86;97647.59;6157577;23;20367;-82
2023/05/31 02:30:08;;;;;;;6.72;2.55;;;;;;;13.90;50.41;97640.16;6157239;23;20446;-81
2023/05/31 02:32:35;;;;;;;5.65;2.65;;;;;;;13.94;50.52;97644.66;6156510;23;20379;-82
2023/05/31 02:35:03;;;;;;;6.57;2.53;;;;;;;13.92;50.23;97644.13;6156356;23;20434;-81
2023/05/31 02:37:31;;;;;;;6.38;2.65;;;;;;;13.97;50.48;97643.34;6156089;23;20703;-81
2023/05/31 02:39:57;;;;;;;6.80;2.70;;;;;;;13.92;50.58;97645.97;6129744;23;20865;-81
2023/05/31 02:42:23;;;;;;;6.97;2.85;;;;;;;13.83;50.42;97639.63;6156256;23;20371;-81
2023/05/31 02:44:49;;;;;;;6.03;2.53;;;;;;;13.89;50.80;97633.22;6156920;23;20371;-82
2023/05/31 02:47:16;;;;;;;4.93;2.65;;;;;;;13.84;51.46;97643.84;6156898;23;20367;-81
2023/05/31 02:49:42;;;;;;;7.20;2.28;;;;;;;13.82;51.17;97638.00;6131162;23;20906;-81
2023/05/31 02:52:09;;;;;;;6.10;2.45;;;;;;;13.72;51.12;97640.66;6154372;23;20395;-80
2023/05/31 02:54:36;;;;;;;7.63;2.53;;;;;;;13.70;51.81;97640.13;6154272;23;20379;-80
2023/05/31 02:57:03;;;;;;;7.23;2.50;;;;;;;13.69;51.90;97636.66;6154760;23;20367;-81
2023/05/31 02:59:29;;;;;;;6.15;2.70;;;;;;;13.68;51.67;97643.03;6128867;23;20403;-81
2023/05/31 03:01:56;;;;;;;5.15;2.42;;;;;;;13.62;51.46;97645.94;6155076;23;20398;-81
2023/05/31 03:04:22;;;;;;;6.80;2.50;;;;;;;13.65;51.98;97646.22;6155071;23;20367;-82
2023/05/31 03:06:49;;;;;;;8.90;2.67;;;;;;;13.66;51.79;97647.84;6154990;23;20700;-81
2023/05/31 03:09:16;;;;;;;6.93;2.50;;;;;;;13.62;51.42;97645.94;6155005;23;20677;-81
2023/05/31 03:11:44;;;;;;;5.97;2.65;;;;;;;13.53;52.05;97643.81;6155191;23;20446;-81
2023/05/31 03:14:11;;;;;;;6.70;2.85;;;;;;;13.58;52.13;97648.34;6155277;23;20410;-81
2023/05/31 03:16:37;;;;;;;7.72;2.70;;;;;;;13.60;52.34;97648.91;6155618;23;20382;-81
2023/05/31 03:19:03;;;;;;;5.38;2.55;;;;;;;13.56;52.25;97645.16;6155192;23;20371;-81
2023/05/31 03:21:30;;;;;;;7.97;3.10;;;;;;;13.46;52.70;97647.78;6155514;23;20390;-81
2023/05/31 03:23:56;;;;;;;5.65;2.65;;;;;;;13.51;52.49;97639.84;6155331;23;20375;-81
2023/05/31 03:26:22;;;;;;;8.40;2.70;;;;;;;13.43;53.02;97643.81;6155517;23;20842;-81
2023/05/31 03:28:50;;;;;;;9.03;2.67;;;;;;;13.39;53.22;97649.91;6155595;23;20366;-82
2023/05/31 03:31:17;;;;;;;5.72;2.70;;;;;;;13.21;53.84;97650.38;6155936;23;20370;-82
2023/05/31 03:33:43;;;;;;;4.45;2.70;;;;;;;13.20;53.28;97649.59;6155350;23;20371;-82
2023/05/31 03:36:10;;;;;;;7.22;2.83;;;;;;;13.00;54.30;97641.53;6155888;23;20367;-81
2023/05/31 03:38:36;;;;;;;4.95;2.60;;;;;;;13.09;54.01;97648.72;6155916;23;20707;-81
2023/05/31 03:41:02;;;;;;;4.60;2.72;;;;;;;13.08;54.62;97655.06;6155509;23;20379;-81
2023/05/31 03:43:28;;;;;;;5.20;2.70;;;;;;;13.11;54.54;97649.25;6155638;23;20688;-82
2023/05/31 03:46:00;;;;;;;5.07;2.40;;;;;;;13.07;54.88;97647.38;6155662;23;20426;-82
2023/05/31 03:48:26;;;;;;;7.70;2.63;;;;;;;13.13;54.78;97649.03;6156351;23;20359;-82
2023/05/31 03:50:53;;;;;;;5.57;2.67;;;;;;;12.97;56.28;97653.47;6156340;23;20367;-81
2023/05/31 03:53:19;;;;;;;4.93;2.53;;;;;;;13.05;55.89;97642.31;6156080;23;20901;-82
2023/05/31 03:55:45;;;;;;;6.68;2.70;;;;;;;13.12;56.30;97661.50;6156271;23;20367;-82
2023/05/31 03:58:12;;;;;;;6.47;2.88;;;;;;;13.19;55.76;97655.97;6155477;23;20827;-81
2023/05/31 04:00:38;;;;;;;7.23;2.80;;;;;;;13.16;56.47;97654.59;6155264;23;20403;-81
2023/05/31 04:03:06;;;;;;;5.97;2.50;;;;;;;13.31;56.69;97651.19;6155313;23;20378;-82
2023/05/31 04:05:32;;;;;;;6.10;2.60;;;;;;;13.15;57.94;97663.66;6154904;23;20422;-81
2023/05/31 04:08:00;;;;;;;7.90;2.90;;;;;;;13.14;57.72;97663.94;6155250;23;20438;-83
2023/05/31 04:10:27;;;;;;;6.15;2.60;;;;;;;13.13;57.40;97657.00;6155356;23;20363;-83
2023/05/31 04:12:53;;;;;;;5.93;2.88;;;;;;;13.24;57.46;97660.47;6155168;23;20724;-81
2023/05/31 04:15:19;;;;;;;9.88;2.70;;;;;;;13.29;58.59;97668.50;6155338;23;20414;-81
2023/05/31 04:17:45;;;;;;;6.78;2.50;;;;;;;13.31;59.18;97669.00;6155641;23;20371;-82
2023/05/31 04:20:13;;;;;;;6.68;2.70;;;;;;;13.31;58.89;97669.00;6154837;23;20843;-81
2023/05/31 04:22:39;;;;;;;6.32;2.80;;;;;;;13.27;58.65;97666.09;6155408;23;20772;-81
2023/05/31 04:25:06;;;;;;;5.67;2.80;;;;;;;13.35;59.29;97668.25;6155212;23;20370;-81
2023/05/31 04:27:33;;;;;;;8.38;2.75;;;;;;;13.42;59.83;97668.78;6155570;23;20383;-82
2023/05/31 04:30:00;;;;;;;7.43;2.58;;;;;;;13.45;60.15;97676.25;6155182;23;20457;-82
2023/05/31 04:32:27;;;;;;;7.97;2.95;;;;;;;13.39;60.39;97673.81;6155108;23;20371;-82
2023/05/31 04:34:57;;;;;;;5.82;2.40;;;;;;;13.49;61.57;97682.63;6155167;23;20398;-81
2023/05/31 04:37:29;;;;;;;5.75;2.60;;;;;;;13.48;61.93;97685.56;6156002;23;20384;-83
2023/05/31 04:39:56;;;;;;;4.57;2.40;;;;;;;13.61;61.88;97678.97;6156165;23;20407;-83
2023/05/31 04:42:24;;;;;;;5.57;2.75;;;;;;;13.63;61.45;97680.28;6155306;23;20383;-83
2023/05/31 04:44:51;;;;;;;6.80;2.70;;;;;;;13.62;61.78;97681.34;6155589;23;20442;-82
2023/05/31 04:47:18;;;;;;;5.90;2.70;;;;;;;13.67;62.65;97684.03;6155682;23;20398;-82
2023/05/31 04:49:45;;;;;;;5.50;2.73;;;;;;;13.73;61.70;97688.28;6156008;23;20375;-82
2023/05/31 04:52:12;;;;;;;5.17;2.73;;;;;;;13.82;61.97;97681.38;6157483;23;20454;-83
2023/05/31 04:54:40;;;;;;;6.78;2.50;;;;;;;13.90;64.43;97686.19;6154477;23;20371;-83
2023/05/31 04:57:07;;;;;;;6.82;2.70;;;;;;;14.00;62.16;97684.56;6155581;23;20371;-82
2023/05/31 04:59:33;;;;;;;7.38;2.72;;;;;;;14.13;63.52;97684.88;6155515;23;20774;-82
2023/05/31 05:01:59;;;;;;;6.18;2.67;;;;;;;14.24;63.92;97688.31;6155100;23;20850;-83
2023/05/31 05:04:26;;;;;;;4.72;2.45;;;;;;;14.36;64.82;97685.41;6155272;23;20877;-82
2023/05/31 05:06:52;;;;;;;6.47;2.80;;;;;;;14.46;63.87;97696.84;6156123;23;20382;-82
2023/05/31 05:09:18;;;;;;;6.38;2.78;;;;;;;14.58;62.44;97693.94;6156164;23;20378;-83
2023/05/31 05:11:46;;;;;;;7.45;2.78;;;;;;;14.72;61.06;97692.31;6155900;23;20370;-83
2023/05/31 05:14:12;;;;;;;6.70;2.90;;;;;;;14.81;61.74;97690.66;6156385;23;20461;-82
2023/05/31 05:16:38;;;;;;;10.18;3.25;;;;;;;14.91;59.94;97695.97;6156474;23;20862;-82
2023/05/31 05:19:04;;;;;;;6.20;2.83;;;;;;;14.94;56.01;97697.31;6156092;23;20374;-83
2023/05/31 05:21:30;;;;;;;5.32;2.60;;;;;;;15.05;55.47;97688.19;6155564;23;20382;-82
2023/05/31 05:23:57;;;;;;;8.45;2.60;;;;;;;15.10;57.56;97693.53;6155193;23;20445;-83
2023/05/31 05:26:23;;;;;;;14.10;3.05;;;;;;;15.15;55.47;97688.16;6155447;23;20375;-83
2023/05/31 05:28:50;;;;;;;6.25;2.92;;;;;;;15.21;56.77;97696.94;6156076;23;20367;-83
2023/05/31 05:31:16;;;;;;;5.38;2.70;;;;;;;15.30;56.71;97697.97;6155160;23;20367;-82
2023/05/31 05:33:43;;;;;;;7.18;2.67;;;;;;;15.35;57.08;97701.41;6155162;23;20393;-81
2023/05/31 05:36:09;;;;;;;6.78;2.80;;;;;;;15.32;54.70;97701.97;6155795;23;20402;-82
2023/05/31 05:38:35;;;;;;;5.53;2.40;;;;;;;15.46;55.98;97694.16;6154495;23;20425;-82
2023/05/31 05:41:02;;;;;;;6.22;2.65;;;;;;;15.48;54.91;97687.50;6155419;23;20405;-81
2023/05/31 05:43:30;;;;;;;6.32;2.63;;;;;;;15.54;55.01;97690.16;6155706;23;20735;-81
2023/05/31 05:45:57;;;;;;;6.70;2.85;;;;;;;15.59;53.55;97690.13;6155699;23;20398;-81
2023/05/31 05:48:23;;;;;;;8.93;2.47;;;;;;;15.64;55.18;97696.22;6156015;23;20838;-83
2023/05/31 05:50:50;;;;;;;6.60;2.57;;;;;;;15.63;53.31;97699.19;6155849;23;20368;-83
2023/05/31 05:53:16;;;;;;;6.72;2.80;;;;;;;15.64;54.42;97698.88;6156052;23;20736;-82
2023/05/31 05:55:49;;;;;;;5.78;2.88;;;;;;;15.68;54.55;97701.81;6155391;23;20456;-81
2023/05/31 05:58:16;;;;;;;5.68;2.78;;;;;;;15.70;54.26;97697.81;6155775;23;20422;-80
2023/05/31 06:00:44;;;;;;;7.07;2.65;;;;;;;15.75;55.13;97704.97;6155998;23;20383;-79
2023/05/31 06:03:11;;;;;;;6.65;2.78;;;;;;;15.77;54.42;97700.16;6153148;23;20429;-78
2023/05/31 06:05:38;;;;;;;6.03;2.50;;;;;;;15.79;53.17;97704.13;6155561;23;20378;-81
2023/05/31 06:08:05;;;;;;;9.30;2.78;;;;;;;15.87;53.35;97692.88;6156095;23;20381;-77
2023/05/31 06:10:31;;;;;;;7.80;2.80;;;;;;;15.94;53.26;97700.56;6156000;23;20395;-80
2023/05/31 06:12:57;;;;;;;10.77;2.80;;;;;;;15.95;53.29;97699.50;6156919;23;20371;-78
2023/05/31 06:15:24;;;;;;;6.57;2.58;;;;;;;16.00;52.18;97706.69;6156356;23;20807;-77
2023/05/31 06:17:50;;;;;;;12.07;3.07;;;;;;;16.05;53.17;97704.78;6156575;23;20393;-78
2023/05/31 06:20:18;;;;;;;7.25;3.00;;;;;;;16.11;53.53;97695.66;6157432;23;20704;-78
2023/05/31 06:22:44;;;;;;;15.73;2.90;;;;;;;16.13;52.56;97693.50;6156604;23;20371;-78
2023/05/31 06:25:12;;;;;;;11.90;3.17;;;;;;;16.19;52.51;97689.72;6156704;23;20373;-79
2023/05/31 06:27:39;;;;;;;9.35;3.08;;;;;;;16.24;52.21;97699.56;6157334;23;20429;-78
2023/05/31 06:30:06;;;;;;;9.00;3.15;;;;;;;16.26;52.53;97700.06;6157358;23;20406;-77
2023/05/31 06:32:33;;;;;;;7.90;2.50;;;;;;;16.30;52.40;97698.47;6156968;23;20371;-78
2023/05/31 06:34:59;;;;;;;10.00;3.20;;;;;;;16.36;52.11;97693.84;6157175;23;20399;-79
2023/05/31 06:37:27;;;;;;;18.00;3.00;;;;;;;16.40;51.96;97694.88;6157906;23;20371;-78
2023/05/31 06:39:54;;;;;;;22.80;5.68;;;;;;;16.41;52.91;97688.47;6157410;23;20375;-78
2023/05/31 06:42:21;;;;;;;10.40;2.80;;;;;;;16.45;52.74;97701.00;6155596;23;20383;-79
2023/05/31 06:44:47;;;;;;;12.63;3.03;;;;;;;16.52;50.63;97693.44;6155736;23;20381;-77
2023/05/31 06:47:14;;;;;;;10.60;2.95;;;;;;;16.56;50.59;97691.78;6155966;23;20363;-78
2023/05/31 06:49:40;;;;;;;11.18;2.88;;;;;;;16.60;51.46;97686.69;6155349;23;20374;-79
2023/05/31 06:52:07;;;;;;;10.60;3.70;;;;;;;16.68;52.22;97686.13;6155935;23;20446;-79
2023/05/31 06:54:36;;;;;;;9.60;2.85;;;;;;;16.79;51.71;97692.13;6155292;23;20375;-80
2023/05/31 06:57:03;;;;;;;8.32;3.00;;;;;;;16.83;50.51;97687.84;6155770;23;20417;-79
2023/05/31 06:59:29;;;;;;;9.48;3.45;;;;;;;16.87;50.43;97688.84;6156572;23;20390;-78
2023/05/31 07:01:56;;;;;;;8.68;3.08;;;;;;;16.97;50.06;97686.88;6156100;23;20429;-79
2023/05/31 07:04:22;;;;;;;11.18;2.88;;;;;;;17.00;49.77;97682.81;6156206;23;20426;-79
2023/05/31 07:06:49;;;;;;;11.93;3.35;;;;;;;16.99;50.18;97683.88;6156477;23;20812;-79
2023/05/31 07:09:15;;;;;;;7.85;2.72;;;;;;;17.08;50.34;97692.09;6156460;23;20402;-79
2023/05/31 07:11:43;;;;;;;12.80;3.17;;;;;;;17.09;50.65;97689.13;6155556;23;20367;-80
2023/05/31 07:14:09;;;;;;;11.75;3.08;;;;;;;17.17;51.23;97685.84;6156285;23;20369;-80
2023/05/31 07:16:36;;;;;;;12.80;2.78;;;;;;;17.26;50.94;97691.34;6155711;23;20374;-81
2023/05/31 07:19:02;;;;;;;7.50;2.90;;;;;;;17.36;50.48;97678.66;6156744;23;20488;-80
2023/05/31 07:21:29;;;;;;;11.48;2.80;;;;;;;17.46;50.59;97687.63;6157697;23;20391;-82
2023/05/31 07:23:55;;;;;;;12.35;3.40;;;;;;;17.58;49.53;97688.00;6157127;23;20379;-82
2023/05/31 07:26:22;;;;;;;8.80;3.05;;;;;;;17.66;49.64;97682.84;6156234;23;20466;-81
2023/05/31 07:28:52;;;;;;;7.18;2.65;;;;;;;17.71;49.05;97673.91;6156450;23;20379;-81
2023/05/31 07:31:20;;;;;;;11.65;3.17;;;;;;;17.77;48.42;97686.16;6156291;23;20400;-82
2023/05/31 07:33:46;;;;;;;9.40;2.83;;;;;;;17.81;49.21;97686.38;6156372;23;20374;-82
2023/05/31 07:36:12;;;;;;;15.20;3.10;;;;;;;17.87;49.95;97683.34;6158614;23;20367;-82
2023/05/31 07:38:39;;;;;;;7.07;2.53;;;;;;;17.92;50.01;97669.84;6156971;23;20371;-81
2023/05/31 07:41:05;;;;;;;8.40;3.20;;;;;;;18.00;48.96;97674.56;6156828;23;20475;-81
2023/05/31 07:43:32;;;;;;;8.20;2.90;;;;;;;18.02;48.97;97675.06;6156946;23;20379;-82
2023/05/31 07:45:59;;;;;;;10.13;3.13;;;;;;;18.08;48.07;97668.53;6156278;23;20715;-82
2023/05/31 07:48:25;;;;;;;7.60;3.28;;;;;;;18.16;48.55;97672.44;6157687;23;20371;-81
2023/05/31 07:50:52;;;;;;;9.63;3.03;;;;;;;18.19;48.73;97669.94;6158340;23;20845;-80
2023/05/31 07:53:18;;;;;;;9.15;2.60;;;;;;;18.32;48.85;97667.63;6157335;23;20824;-80
2023/05/31 07:55:45;;;;;;;8.05;2.92;;;;;;;18.43;47.39;97669.03;6157675;23;20374;-80
2023/05/31 07:58:11;;;;;;;6.95;2.47;;;;;;;18.50;46.76;97672.13;6158544;23;20547;-81
2023/05/31 08:00:38;;;;;;;8.13;3.00;;;;;;;18.62;47.17;97658.28;6157914;23;20433;-81
2023/05/31 08:03:06;;;;;;;10.70;3.33;;;;;;;18.70;46.94;97663.75;6157472;23;20452;-78
2023/05/31 08:05:32;;;;;;;8.68;3.08;;;;;;;18.85;47.67;97665.38;6155622;23;20370;-79
2023/05/31 08:07:59;;;;;;;16.52;3.53;;;;;;;18.92;47.24;97666.56;6155931;23;20367;-79
2023/05/31 08:10:25;;;;;;;7.70;3.20;;;;;;;19.05;47.05;97664.97;6161393;23;20374;-82
2023/05/31 08:12:52;;;;;;;10.75;2.95;;;;;;;19.18;46.91;97656.09;6161061;23;20386;-81
2023/05/31 08:15:18;;;;;;;9.15;2.90;;;;;;;19.37;46.64;97652.50;6159665;23;20759;-82
2023/05/31 08:17:46;;;;;;;9.77;3.13;;;;;;;19.51;46.66;97650.63;6157530;23;20757;-80
2023/05/31 08:20:15;;;;;;;22.25;3.35;;;;;;;19.61;46.80;97650.41;6130046;23;20446;-80
2023/05/31 08:22:42;;;;;;;8.53;3.00;;;;;;;19.78;46.03;97650.53;6156088;23;20706;-82
2023/05/31 08:25:08;;;;;;;8.15;2.78;;;;;;;19.87;45.51;97658.66;6154100;23;20367;-80
2023/05/31 08:27:35;;;;;;;8.85;3.03;;;;;;;19.97;45.55;97655.75;6153637;23;20462;-81
2023/05/31 08:30:01;;;;;;;11.68;3.10;;;;;;;20.05;45.17;97646.97;6154109;23;20371;-82
2023/05/31 08:32:27;;;;;;;8.10;2.70;;;;;;;20.19;45.44;97658.44;6155274;23;20831;-80
2023/05/31 08:34:54;;;;;;;11.07;2.85;;;;;;;20.25;43.27;97651.03;6155147;23;20506;-79
2023/05/31 08:37:21;;;;;;;8.05;2.75;;;;;;;20.35;43.18;97645.44;6153967;23;20367;-80
2023/05/31 08:39:47;;;;;;;9.57;3.10;;;;;;;20.52;45.23;97652.81;6155463;23;20378;-80
2023/05/31 08:42:18;;;;;;;7.85;2.88;;;;;;;20.64;45.00;97644.97;6155590;23;20938;-79
2023/05/31 08:44:44;;;;;;;9.55;3.00;;;;;;;20.77;44.54;97657.50;6155684;23;20425;-79
2023/05/31 08:47:17;;;;;;;9.88;3.00;;;;;;;20.89;44.46;97644.28;6155634;23;20371;-79
2023/05/31 08:49:46;;;;;;;10.25;3.00;;;;;;;21.01;44.65;97643.69;6129667;23;20375;-79
2023/05/31 08:52:13;;;;;;;12.23;3.25;;;;;;;21.06;43.80;97641.63;6154828;23;20753;-79
2023/05/31 08:54:42;;;;;;;10.70;2.85;;;;;;;21.15;44.26;97647.84;6154913;23;20375;-80
2023/05/31 08:57:10;;;;;;;8.20;2.90;;;;;;;21.22;41.82;97645.50;6155712;23;20367;-80
2023/05/31 08:59:37;;;;;;;8.65;2.80;;;;;;;21.29;42.56;97641.56;6155695;23;20426;-80
2023/05/31 09:02:04;;;;;;;8.98;2.90;;;;;;;21.38;41.67;97635.09;6156105;23;20386;-79
2023/05/31 09:04:31;;;;;;;14.07;3.30;;;;;;;21.42;42.23;97635.28;6156828;23;20711;-80
2023/05/31 09:06:57;;;;;;;9.02;3.08;;;;;;;21.53;42.76;97636.53;6157222;23;20394;-79
2023/05/31 09:09:23;;;;;;;14.90;2.75;;;;;;;21.59;42.80;97641.44;6159763;23;20826;-79
2023/05/31 09:11:51;;;;;;;8.38;2.50;;;;;;;21.77;43.23;97644.16;6159502;23;20371;-80
2023/05/31 09:14:17;;;;;;;10.35;2.95;;;;;;;21.85;42.66;97641.47;6159774;23;20376;-79
2023/05/31 09:16:43;;;;;;;13.55;2.67;;;;;;;21.91;42.20;97640.19;6159378;23;20378;-80
2023/05/31 09:19:10;;;;;;;9.73;2.45;;;;;;;22.04;40.28;97640.38;6160079;23;20370;-80
2023/05/31 09:21:41;;;;;;;9.70;2.80;;;;;;;22.15;42.20;97634.34;6160376;23;20456;-80
2023/05/31 09:24:07;;;;;;;11.73;2.70;;;;;;;22.17;42.80;97645.59;6159920;23;20707;-80
2023/05/31 09:26:34;;;;;;;13.25;3.45;;;;;;;22.27;40.65;97645.25;6160386;23;20362;-80
2023/05/31 09:29:02;;;;;;;9.10;2.72;;;;;;;22.36;38.30;97650.63;6160392;23;20394;-79
2023/05/31 09:31:28;;;;;;;7.60;2.88;;;;;;;22.42;38.43;97635.06;6159481;23;20696;-79
2023/05/31 09:33:55;;;;;;;7.30;2.55;;;;;;;22.45;40.26;97637.91;6158946;23;20378;-78
2023/05/31 09:36:26;;;;;;;6.13;2.70;;;;;;;22.55;41.06;97629.50;6158895;23;20968;-78
2023/05/31 09:39:00;;;;;;;8.00;3.07;;;;;;;22.64;39.89;97638.31;6158580;23;20378;-78
2023/05/31 09:41:27;;;;;;;6.50;2.40;;;;;;;22.80;40.25;97635.13;6159021;23;20394;-78
2023/05/31 09:43:53;;;;;;;7.97;2.78;;;;;;;22.90;39.75;97640.16;6131991;23;20379;-79
2023/05/31 09:46:22;;;;;;;7.32;2.85;;;;;;;23.02;39.56;97640.25;6158995;23;20845;-80
2023/05/31 09:48:58;;;;;;;30.27;3.35;;;;;;;23.13;38.51;97620.69;6158691;23;20699;-79
2023/05/31 09:51:24;;;;;;;10.63;2.95;;;;;;;23.32;35.41;97625.63;6159310;23;20458;-79
2023/05/31 09:53:55;;;;;;;10.35;2.75;;;;;;;23.22;36.05;97633.34;6158832;23;20739;-80
2023/05/31 09:56:22;;;;;;;7.80;2.47;;;;;;;23.33;36.56;97626.44;6158162;23;20371;-81
2023/05/31 09:58:49;;;;;;;6.15;2.72;;;;;;;23.46;35.64;97618.06;6157938;23;20367;-81
2023/05/31 10:01:15;;;;;;;8.77;2.53;;;;;;;23.45;34.61;97626.53;6158100;23;20405;-80
2023/05/31 10:03:43;;;;;;;13.45;2.83;;;;;;;23.66;36.71;97613.84;6158032;23;20438;-80
2023/05/31 10:06:11;;;;;;;7.15;2.55;;;;;;;23.89;34.98;97609.66;6158404;23;20370;-80
2023/05/31 10:08:38;;;;;;;6.47;2.60;;;;;;;24.25;36.41;97617.13;6158449;23;20375;-80
2023/05/31 10:11:04;;;;;;;6.45;2.70;;;;;;;24.59;33.77;97613.25;6132422;23;20858;-80
2023/05/31 10:13:32;;;;;;;7.88;2.72;;;;;;;24.82;32.89;97616.31;6158567;23;20367;-80
2023/05/31 10:16:03;;;;;;;7.22;2.50;;;;;;;25.16;34.66;97614.31;6158598;23;20480;-80
2023/05/31 10:18:32;;;;;;;4.97;2.22;;;;;;;25.32;33.71;97613.28;6157587;23;20850;-82
2023/05/31 10:21:07;;;;;;;11.68;2.97;;;;;;;25.71;33.96;97614.44;6156698;23;20470;-81
2023/05/31 10:23:41;;;;;;;5.63;2.50;;;;;;;26.08;31.09;97614.34;6156358;23;20458;-81
2023/05/31 10:26:13;;;;;;;8.27;2.42;;;;;;;26.20;31.66;97617.78;6156507;23;20367;-80
2023/05/31 10:28:45;;;;;;;6.53;2.10;;;;;;;26.30;29.89;97621.16;6156296;23;20375;-80
2023/05/31 10:31:13;;;;;;;7.10;2.20;;;;;;;26.48;31.79;97608.81;6156148;23;20367;-79
2023/05/31 10:33:46;;;;;;;16.05;2.35;;;;;;;26.60;31.25;97614.19;6156290;23;20363;-79
2023/05/31 10:36:14;;;;;;;8.27;2.22;;;;;;;26.72;31.71;97603.22;6157277;23;20367;-80
2023/05/31 10:38:48;;;;;;;10.63;2.58;;;;;;;27.00;30.25;97599.63;6156850;23;20681;-79
2023/05/31 10:41:20;;;;;;;10.95;2.50;;;;;;;26.93;29.63;97595.63;6156433;23;20473;-80
2023/05/31 10:43:53;;;;;;;5.88;2.28;;;;;;;26.83;30.25;97604.28;6156270;23;20696;-81
2023/05/31 10:46:22;;;;;;;5.75;2.10;;;;;;;26.76;30.18;97597.91;6156896;23;20696;-80
2023/05/31 10:48:52;;;;;;;5.28;2.20;;;;;;;26.75;29.75;97591.66;6156806;23;20700;-81
2023/05/31 10:51:36;;;;;;;8.57;2.50;;;;;;;26.69;28.15;97593.06;6157157;23;20370;-80
2023/05/31 10:54:03;;;;;;;8.90;2.50;;;;;;;26.60;28.21;97595.19;6155847;23;20372;-81
2023/05/31 10:56:29;;;;;;;4.20;2.25;;;;;;;26.53;29.35;97589.56;6157028;23;20414;-79
2023/05/31 10:58:55;;;;;;;8.57;2.40;;;;;;;26.61;29.95;97583.19;6157054;23;20405;-80
2023/05/31 11:01:22;;;;;;;7.57;2.30;;;;;;;26.77;31.93;97592.09;6156768;23;20457;-81
2023/05/31 11:03:50;;;;;;;9.40;2.65;;;;;;;26.92;29.95;97591.31;6156793;23;20839;-81
2023/05/31 11:06:22;;;;;;;7.65;2.38;;;;;;;27.08;30.14;97601.38;6157371;23;20407;-81
2023/05/31 11:09:00;;;;;;;13.93;2.60;;;;;;;27.18;29.38;97593.47;6157688;23;20367;-81
2023/05/31 11:11:27;;;;;;;5.60;2.47;;;;;;;27.29;30.34;97601.88;6157035;23;20371;-80
2023/05/31 11:13:59;;;;;;;6.32;2.50;;;;;;;27.28;29.17;97586.72;6157815;23;20397;-80
2023/05/31 11:16:25;;;;;;;6.70;2.35;;;;;;;27.40;29.05;97574.91;6157447;23;20367;-80
2023/05/31 11:19:03;;;;;;;11.55;3.22;;;;;;;27.56;29.33;97584.63;6157162;23;20371;-80
2023/05/31 11:21:50;;;;;;;8.25;2.50;;;;;;;27.57;28.06;97583.47;6157905;23;20387;-80
2023/05/31 11:24:26;;;;;;;11.48;2.70;;;;;;;27.74;28.29;97572.16;6157717;23;20382;-80
2023/05/31 11:26:54;;;;;;;8.68;2.33;;;;;;;27.87;28.51;97580.19;6157903;23;20402;-81
2023/05/31 11:29:20;;;;;;;9.45;2.47;;;;;;;27.82;27.83;97561.44;6157142;23;20776;-80
2023/05/31 11:31:58;;;;;;;9.48;2.13;;;;;;;27.98;27.77;97559.41;6156524;23;20405;-79
2023/05/31 11:34:26;;;;;;;10.53;2.73;;;;;;;28.11;28.03;97555.38;6156313;23;20837;-78